Time;durP1;ratioP1;P1;durP2;ratioP2;P2;SDS_P1;SDS_P2;PMS_P1;PMS_P2;Temp;Humidity;BMP_temperature;BMP_pressure;BME280_temperature;BME280_humidity;BME280_pressure;Samples;Min_cycle;Max_cycle;Signal;HPM_P1;HPM_P2
2023/10/15 00:01:12;;;;;;;4.22;1.23;;;;;;;7.15;100.00;98340.53;15275771;19;20018;-54
2023/10/15 00:06:40;;;;;;;4.80;1.10;;;;;;;7.15;100.00;98340.53;15275018;19;20482;-50
2023/10/15 00:12:04;;;;;;;4.72;1.67;;;;;;;7.13;100.00;98339.81;15281878;19;20018;-56
2023/10/15 00:17:30;;;;;;;3.88;1.25;;;;;;;7.12;100.00;98357.75;15272358;19;20018;-55
2023/10/15 00:23:04;;;;;;;7.70;1.60;;;;;;;7.13;100.00;98358.56;15273883;19;20059;-54
2023/10/15 00:28:29;;;;;;;5.25;1.20;;;;;;;7.02;100.00;98360.41;15280006;19;20082;-54
2023/10/15 00:33:53;;;;;;;3.97;1.20;;;;;;;7.00;100.00;98359.69;15276943;19;20097;-54
2023/10/15 00:39:22;;;;;;;5.35;1.40;;;;;;;6.93;100.00;98380.00;15273910;19;20015;-54
2023/10/15 00:44:47;;;;;;;6.10;1.40;;;;;;;6.91;100.00;98360.53;15277244;19;20015;-54
2023/10/15 00:50:20;;;;;;;8.10;1.50;;;;;;;6.81;100.00;98362.38;15271615;19;20013;-55
2023/10/15 00:55:49;;;;;;;4.60;1.23;;;;;;;6.74;100.00;98360.25;15270114;19;20022;-56
2023/10/15 01:01:26;;;;;;;5.85;1.42;;;;;;;6.69;100.00;98357.13;15270809;19;20484;-55
2023/10/15 01:06:51;;;;;;;5.07;1.42;;;;;;;6.59;100.00;98364.31;15273748;19;20018;-54
2023/10/15 01:12:30;;;;;;;5.68;1.30;;;;;;;6.48;100.00;98359.91;15276236;19;20017;-54
2023/10/15 01:18:01;;;;;;;7.72;1.40;;;;;;;6.41;100.00;98367.63;15270899;19;20086;-54
2023/10/15 01:23:43;;;;;;;6.13;1.30;;;;;;;6.32;100.00;98377.34;15272005;19;20424;-51
2023/10/15 01:29:15;;;;;;;3.92;1.23;;;;;;;6.19;100.00;98378.53;15270225;19;20413;-54
2023/10/15 01:34:43;;;;;;;5.45;1.20;;;;;;;6.05;100.00;98369.91;15269765;19;20018;-53
2023/10/15 01:40:38;;;;;;;6.45;1.30;;;;;;;5.94;100.00;98369.97;15269542;19;20714;-51
2023/10/15 01:46:10;;;;;;;5.18;1.23;;;;;;;5.82;100.00;98364.66;15271731;19;20018;-49
2023/10/15 01:51:39;;;;;;;7.05;1.67;;;;;;;5.73;100.00;98370.81;15272845;19;20022;-52
2023/10/15 01:57:06;;;;;;;6.93;1.20;;;;;;;5.66;100.00;98358.97;15267026;19;20014;-53
2023/10/15 02:02:34;;;;;;;4.85;1.23;;;;;;;5.57;100.00;98368.59;15264494;19;20019;-52
2023/10/15 02:08:02;;;;;;;4.70;1.25;;;;;;;5.49;100.00;98366.59;15270088;19;20023;-51
2023/10/15 02:13:30;;;;;;;4.07;1.30;;;;;;;5.42;100.00;98367.22;15270140;19;20018;-53
2023/10/15 02:18:59;;;;;;;4.50;1.17;;;;;;;5.36;100.00;98363.25;15269816;19;20358;-53
2023/10/15 02:24:26;;;;;;;4.78;1.20;;;;;;;5.32;100.00;98362.66;15270940;19;20381;-52
2023/10/15 02:29:52;;;;;;;5.32;1.30;;;;;;;5.24;100.00;98355.28;15263202;19;20017;-55
2023/10/15 02:35:24;;;;;;;6.18;1.30;;;;;;;5.19;100.00;98354.00;15270953;19;20071;-53
2023/10/15 02:41:03;;;;;;;5.38;1.42;;;;;;;5.16;100.00;98364.94;15267668;19;20430;-53
2023/10/15 02:46:37;;;;;;;6.47;1.30;;;;;;;5.11;100.00;98381.38;15266703;19;20011;-52
2023/10/15 02:52:10;;;;;;;5.90;1.60;;;;;;;5.03;100.00;98375.78;15268262;19;20479;-52
2023/10/15 02:57:38;;;;;;;5.45;1.25;;;;;;;4.95;100.00;98376.41;15265649;19;20043;-53
2023/10/15 03:03:07;;;;;;;6.75;1.55;;;;;;;4.97;100.00;98378.97;15260454;19;20105;-53
2023/10/15 03:08:36;;;;;;;5.47;1.50;;;;;;;4.94;100.00;98390.75;15269479;19;20011;-52
2023/10/15 03:14:06;;;;;;;6.40;1.42;;;;;;;4.90;100.00;98384.81;15265878;19;20359;-54
2023/10/15 03:19:33;;;;;;;5.63;1.38;;;;;;;4.86;100.00;98380.72;15265576;19;20038;-53
2023/10/15 03:25:02;;;;;;;6.70;1.60;;;;;;;4.81;100.00;98388.25;15265365;19;20018;-52
2023/10/15 03:30:33;;;;;;;5.47;1.30;;;;;;;4.78;100.00;98385.81;15263621;19;20856;-54
2023/10/15 03:36:12;;;;;;;8.43;1.73;;;;;;;4.75;100.00;98386.09;15258516;19;20014;-54
2023/10/15 03:41:40;;;;;;;7.25;1.45;;;;;;;4.74;100.00;98392.41;15265279;19;20039;-52
2023/10/15 03:47:06;;;;;;;5.03;1.25;;;;;;;4.70;100.00;98391.81;15262855;19;20475;-53
2023/10/15 03:52:34;;;;;;;7.75;1.70;;;;;;;4.63;100.00;98399.47;15266788;19;20371;-52
2023/10/15 03:58:02;;;;;;;5.32;1.45;;;;;;;4.58;100.00;98384.78;15262313;19;20014;-50
2023/10/15 04:03:28;;;;;;;5.18;1.50;;;;;;;4.56;100.00;98390.22;15259987;19;20539;-51
2023/10/15 04:09:09;;;;;;;7.50;1.70;;;;;;;4.51;100.00;98389.78;15260723;19;20542;-53
2023/10/15 04:14:39;;;;;;;7.90;1.40;;;;;;;4.45;100.00;98391.13;15262813;19;20418;-52
2023/10/15 04:20:04;;;;;;;4.90;1.30;;;;;;;4.42;100.00;98393.16;15279745;19;20057;-50
2023/10/15 04:25:36;;;;;;;6.70;1.50;;;;;;;4.40;100.00;98385.28;15280591;19;20024;-50
2023/10/15 04:31:04;;;;;;;6.72;1.40;;;;;;;4.42;100.00;98375.34;15282618;19;20014;-54
2023/10/15 04:36:40;;;;;;;4.97;1.42;;;;;;;4.40;100.00;98373.78;15270264;19;20627;-51
2023/10/15 04:42:09;;;;;;;7.35;1.85;;;;;;;4.37;100.00;98377.53;15268739;19;20020;-52
2023/10/15 04:47:41;;;;;;;4.68;1.25;;;;;;;4.32;100.00;98382.41;15273774;19;20022;-52
2023/10/15 04:53:12;;;;;;;7.30;1.57;;;;;;;4.27;100.00;98377.44;15275794;19;20078;-52
2023/10/15 04:58:37;;;;;;;5.23;1.57;;;;;;;4.24;100.00;98377.66;15272419;19;20244;-53
2023/10/15 05:04:06;;;;;;;6.53;1.45;;;;;;;4.27;100.00;98371.22;15277005;19;20295;-54
2023/10/15 05:09:39;;;;;;;7.03;1.48;;;;;;;4.35;100.00;98370.63;15269584;19;20007;-52
2023/10/15 05:15:05;;;;;;;4.60;1.30;;;;;;;4.36;100.00;98361.66;15270308;19;20220;-54
2023/10/15 05:20:33;;;;;;;5.30;1.52;;;;;;;4.30;100.00;98361.16;15275580;19;20794;-51
2023/10/15 05:25:57;;;;;;;5.03;1.45;;;;;;;4.24;100.00;98372.34;15268678;19;20891;-51
2023/10/15 05:31:22;;;;;;;4.50;1.20;;;;;;;4.16;100.00;98364.09;15277433;19;20520;-53
2023/10/15 05:36:49;;;;;;;6.00;1.40;;;;;;;4.08;100.00;98371.84;15272057;19;20073;-53
2023/10/15 05:42:15;;;;;;;6.60;1.50;;;;;;;4.03;100.00;98379.38;15269150;19;20078;-55
2023/10/15 05:47:42;;;;;;;5.35;1.55;;;;;;;3.98;100.00;98377.91;15269071;19;20081;-53
2023/10/15 05:53:10;;;;;;;6.40;1.38;;;;;;;3.95;100.00;98383.47;15277097;19;20007;-51
2023/10/15 05:58:35;;;;;;;4.95;1.38;;;;;;;3.94;100.00;98392.44;15274447;19;20011;-52
2023/10/15 06:04:00;;;;;;;5.57;1.48;;;;;;;3.93;100.00;98398.75;15274103;19;20018;-50
2023/10/15 06:09:27;;;;;;;5.70;1.35;;;;;;;3.95;100.00;98401.28;15273091;19;20034;-52
2023/10/15 06:14:52;;;;;;;5.97;1.40;;;;;;;3.96;100.00;98405.66;15269137;19;20034;-55
2023/10/15 06:20:20;;;;;;;7.35;1.67;;;;;;;4.00;100.00;98418.63;15264500;19;20028;-52
2023/10/15 06:25:48;;;;;;;5.57;1.40;;;;;;;4.08;100.00;98414.50;15271410;19;20022;-55
2023/10/15 06:31:12;;;;;;;7.75;1.65;;;;;;;4.13;100.00;98417.66;15266752;19;20024;-51
2023/10/15 06:36:38;;;;;;;6.38;1.50;;;;;;;4.25;100.00;98421.16;15268276;19;20014;-54
2023/10/15 06:42:05;;;;;;;5.63;1.75;;;;;;;4.38;100.00;98418.41;15267588;19;20487;-57
2023/10/15 06:47:36;;;;;;;7.10;1.60;;;;;;;4.48;100.00;98412.19;15262376;19;20762;-57
2023/10/15 06:53:05;;;;;;;5.13;1.80;;;;;;;4.56;100.00;98419.59;15273688;19;20086;-56
2023/10/15 06:58:33;;;;;;;5.88;1.70;;;;;;;4.66;100.00;98417.03;15266122;19;20322;-55
2023/10/15 07:03:59;;;;;;;7.95;2.67;;;;;;;4.81;100.00;98406.09;15269097;19;20018;-55
2023/10/15 07:09:23;;;;;;;6.13;1.90;;;;;;;4.96;100.00;98409.31;15271301;19;20018;-68
2023/10/15 07:14:51;;;;;;;5.75;1.70;;;;;;;5.27;100.00;98404.09;15266152;19;20007;-54
2023/10/15 07:20:21;;;;;;;6.75;1.50;;;;;;;5.59;100.00;98404.06;15254251;19;20014;-52
2023/10/15 07:25:49;;;;;;;7.43;1.97;;;;;;;5.94;100.00;98402.06;15281228;19;20050;-51
2023/10/15 07:31:16;;;;;;;7.65;1.70;;;;;;;6.27;100.00;98394.78;15283354;19;20015;-56
2023/10/15 07:36:43;;;;;;;4.60;1.45;;;;;;;6.64;100.00;98402.22;15264186;19;20015;-55
2023/10/15 07:42:07;;;;;;;5.05;1.52;;;;;;;6.91;100.00;98385.50;15260243;19;20382;-53
2023/10/15 07:47:37;;;;;;;9.43;1.67;;;;;;;7.19;100.00;98384.81;15263355;19;20026;-52
2023/10/15 07:53:03;;;;;;;7.20;1.60;;;;;;;7.53;100.00;98393.25;15274138;19;20019;-54
2023/10/15 07:58:29;;;;;;;4.97;1.48;;;;;;;7.88;100.00;98384.75;15279898;19;20805;-57
2023/10/15 08:03:59;;;;;;;3.78;1.48;;;;;;;8.02;100.00;98398.53;15278434;19;20025;-54
2023/10/15 08:09:25;;;;;;;3.25;1.10;;;;;;;8.12;100.00;98386.94;15285729;19;20073;-55
2023/10/15 08:14:49;;;;;;;4.85;1.58;;;;;;;8.14;100.00;98380.41;15273924;19;20735;-52
2023/10/15 08:20:17;;;;;;;7.05;1.63;;;;;;;8.18;100.00;98397.06;15276230;19;20579;-54
2023/10/15 08:25:42;;;;;;;3.80;1.40;;;;;;;8.18;100.00;98399.75;15270413;19;20025;-53
2023/10/15 08:31:07;;;;;;;4.93;1.40;;;;;;;8.18;100.00;98400.63;15275667;19;20045;-55
2023/10/15 08:36:34;;;;;;;4.18;1.45;;;;;;;8.13;100.00;98402.88;15273928;19;20010;-56
2023/10/15 08:42:01;;;;;;;4.30;1.30;;;;;;;8.06;100.00;98400.91;15275200;19;20015;-54
2023/10/15 08:47:33;;;;;;;6.43;1.60;;;;;;;8.03;100.00;98396.69;15272301;19;20014;-52
2023/10/15 08:53:04;;;;;;;;;;;;;;;7.97;100.00;98398.13;15274024;19;20446;-52
2023/10/15 08:58:29;;;;;;;5.77;1.47;;;;;;;7.99;100.00;98404.19;15268579;19;19923;-56
2023/10/15 09:03:55;;;;;;;5.88;1.42;;;;;;;8.00;100.00;98411.25;15269487;19;20010;-55
2023/10/15 09:09:22;;;;;;;6.68;1.70;;;;;;;8.06;100.00;98417.00;15273857;19;20035;-55
2023/10/15 09:14:49;;;;;;;5.53;1.58;;;;;;;8.05;100.00;98409.97;15271707;19;20010;-54
2023/10/15 09:20:26;;;;;;;5.00;1.35;;;;;;;7.99;100.00;98425.66;15272504;19;20020;-56
2023/10/15 09:25:57;;;;;;;3.22;1.30;;;;;;;7.96;100.00;98403.66;15262589;19;20478;-53
2023/10/15 09:31:15;;;;;;;4.80;1.30;;;;;;;7.98;100.00;98417.75;14755530;19;10001344;-56
2023/10/15 09:36:44;;;;;;;3.45;1.27;;;;;;;8.06;100.00;98430.44;15269365;19;20926;-56
2023/10/15 09:42:12;;;;;;;7.68;1.58;;;;;;;8.09;100.00;98430.16;15267135;19;20099;-55
2023/10/15 09:53:29;;;;;;;4.25;1.45;;;;;;;8.10;100.00;98413.06;15270354;19;20015;-47
2023/10/15 09:58:56;;;;;;;3.75;1.17;;;;;;;8.60;100.00;98422.63;15269402;19;20552;-45
2023/10/15 10:04:58;;;;;;;1.95;0.90;;;;;;;8.56;100.00;98432.84;15262451;19;20031;-55
2023/10/15 10:11:02;;;;;;;2.58;1.00;;;;;;;8.57;100.00;98439.91;15272132;19;20029;-54
2023/10/15 10:16:31;;;;;;;2.92;0.95;;;;;;;8.56;100.00;98437.38;15269799;19;20063;-56
2023/10/15 10:21:56;;;;;;;2.35;0.90;;;;;;;8.53;100.00;98433.13;15271495;19;20045;-51
2023/10/15 10:27:21;;;;;;;2.58;0.88;;;;;;;8.31;100.00;98423.59;15269725;19;20643;-50
2023/10/15 10:32:51;;;;;;;2.20;0.90;;;;;;;8.21;100.00;98434.34;15265032;19;20630;-53
2023/10/15 10:38:22;;;;;;;2.03;0.95;;;;;;;8.15;100.00;98429.59;15267037;19;20021;-54
2023/10/15 10:43:48;;;;;;;4.20;1.00;;;;;;;8.15;100.00;98440.31;15267408;19;20028;-50
2023/10/15 10:49:48;;;;;;;2.55;0.88;;;;;;;8.30;100.00;98438.00;15266850;19;20451;-52
2023/10/15 10:55:36;;;;;;;2.58;1.00;;;;;;;8.29;100.00;98439.81;15270178;19;20028;-56
2023/10/15 11:01:02;;;;;;;2.35;0.90;;;;;;;8.21;100.00;98439.72;15269127;19;20023;-49
2023/10/15 11:06:29;;;;;;;2.30;1.00;;;;;;;8.21;100.00;98431.66;15253436;19;20010;-53
2023/10/15 11:11:55;;;;;;;3.80;1.10;;;;;;;8.25;100.00;98429.53;15267073;19;20050;-50
2023/10/15 11:17:21;;;;;;;4.15;1.10;;;;;;;8.18;100.00;98438.19;15263043;19;20015;-50
2023/10/15 11:22:51;;;;;;;2.88;0.80;;;;;;;7.93;100.00;98447.72;15265444;19;20027;-49
2023/10/15 11:28:15;;;;;;;1.73;0.80;;;;;;;7.85;100.00;98447.56;15276317;19;20507;-50
2023/10/15 11:33:41;;;;;;;1.95;0.90;;;;;;;7.81;100.00;98454.22;15281577;19;20020;-55
2023/10/15 11:39:10;;;;;;;1.65;0.77;;;;;;;7.80;100.00;98450.69;15274884;19;20078;-54
2023/10/15 11:44:36;;;;;;;1.65;0.50;;;;;;;7.73;100.00;98452.25;15276299;19;20098;-56
2023/10/15 11:50:06;;;;;;;0.93;0.57;;;;;;;7.80;100.00;98455.22;15275431;19;20018;-53
2023/10/15 11:55:34;;;;;;;2.17;0.80;;;;;;;7.87;100.00;98440.22;15278796;19;20026;-54
2023/10/15 12:00:59;;;;;;;1.52;0.70;;;;;;;7.88;100.00;98447.28;15281170;19;20028;-54
2023/10/15 12:06:23;;;;;;;2.65;0.70;;;;;;;8.07;100.00;98440.16;15273953;19;20028;-55
2023/10/15 12:11:51;;;;;;;1.83;0.77;;;;;;;8.29;100.00;98453.25;15275536;19;20021;-56
2023/10/15 12:17:16;;;;;;;1.65;0.80;;;;;;;8.46;100.00;98448.13;15275071;19;21083;-55
2023/10/15 12:22:41;;;;;;;1.73;0.60;;;;;;;8.71;100.00;98451.16;15276768;19;20098;-55
2023/10/15 12:28:08;;;;;;;2.67;0.80;;;;;;;8.89;100.00;98443.16;15274018;19;20024;-56
2023/10/15 12:33:33;;;;;;;1.02;0.60;;;;;;;9.20;100.00;98432.91;15279208;19;20543;-55
2023/10/15 12:38:58;;;;;;;2.78;0.85;;;;;;;9.46;100.00;98424.09;15271864;19;20026;-56
2023/10/15 12:44:27;;;;;;;1.65;0.68;;;;;;;9.81;100.00;98416.13;15268289;19;20010;-55
2023/10/15 12:49:52;;;;;;;1.50;0.70;;;;;;;9.80;100.00;98420.69;15274140;19;20018;-56
2023/10/15 12:55:18;;;;;;;2.05;0.60;;;;;;;9.87;100.00;98437.88;15275909;19;20397;-56
2023/10/15 13:00:48;;;;;;;2.17;0.80;;;;;;;9.90;100.00;98415.19;15277093;19;20489;-55
2023/10/15 13:06:13;;;;;;;0.90;0.70;;;;;;;9.66;100.00;98429.28;15274142;19;20070;-59
2023/10/15 13:11:37;;;;;;;1.77;0.60;;;;;;;9.50;100.00;98413.88;15273169;19;20792;-52
2023/10/15 13:17:06;;;;;;;1.38;0.60;;;;;;;9.43;100.00;98429.78;15267449;19;20078;-56
2023/10/15 13:22:30;;;;;;;1.38;0.65;;;;;;;9.56;100.00;98435.63;15275894;19;20017;-55
2023/10/15 13:27:56;;;;;;;1.30;0.50;;;;;;;9.88;100.00;98427.94;15271702;19;20025;-55
2023/10/15 13:33:24;;;;;;;1.52;0.50;;;;;;;10.27;100.00;98434.78;15276191;19;20357;-55
2023/10/15 13:38:48;;;;;;;1.27;0.70;;;;;;;10.27;100.00;98427.53;15274981;19;20342;-57
2023/10/15 13:44:14;;;;;;;1.40;0.75;;;;;;;10.38;100.00;98423.78;15267679;19;20097;-57
2023/10/15 13:49:49;;;;;;;2.33;0.73;;;;;;;10.30;100.00;98442.53;15264899;19;20032;-53
2023/10/15 13:55:15;;;;;;;1.05;0.60;;;;;;;10.00;100.00;98440.13;15271469;19;20014;-57
2023/10/15 14:00:40;;;;;;;1.50;0.70;;;;;;;9.65;100.00;98451.81;15273814;19;20356;-56
2023/10/15 14:06:08;;;;;;;1.73;0.70;;;;;;;9.35;100.00;98465.50;15269228;19;20027;-55
2023/10/15 14:11:34;;;;;;;1.75;0.57;;;;;;;9.18;100.00;98466.28;15272116;19;20029;-62
2023/10/15 14:16:58;;;;;;;1.83;0.60;;;;;;;9.05;100.00;98485.47;15262670;19;20351;-57
2023/10/15 14:22:27;;;;;;;1.08;0.57;;;;;;;8.98;100.00;98490.59;15264976;19;20021;-51
2023/10/15 14:27:53;;;;;;;1.02;0.52;;;;;;;9.00;100.00;98493.13;15267266;19;20428;-52
2023/10/15 14:33:17;;;;;;;1.05;0.57;;;;;;;9.36;100.00;98509.34;15269412;19;20026;-53
2023/10/15 14:38:45;;;;;;;0.95;0.52;;;;;;;9.59;100.00;98500.84;15267047;19;20018;-54
2023/10/15 14:44:11;;;;;;;0.93;0.38;;;;;;;9.73;100.00;98516.44;15266393;19;20023;-55
2023/10/15 14:49:44;;;;;;;1.92;0.40;;;;;;;9.86;100.00;98511.53;15259490;19;20010;-52
2023/10/15 14:55:12;;;;;;;1.42;0.60;;;;;;;9.84;100.00;98515.38;15260882;19;20014;-53
2023/10/15 15:00:37;;;;;;;1.05;0.40;;;;;;;9.77;100.00;98528.59;15266029;19;20018;-51
2023/10/15 15:06:09;;;;;;;0.68;0.30;;;;;;;9.57;100.00;98530.59;15262954;19;20050;-54
2023/10/15 15:11:37;;;;;;;1.70;0.50;;;;;;;9.47;100.00;98545.94;15269632;19;20015;-51
2023/10/15 15:17:01;;;;;;;0.70;0.30;;;;;;;9.33;100.00;98566.13;15265245;19;20526;-56
2023/10/15 15:22:28;;;;;;;1.98;0.68;;;;;;;9.21;100.00;98565.47;15261392;19;20021;-55
2023/10/15 15:27:59;;;;;;;0.57;0.47;;;;;;;9.07;100.00;98572.19;15262820;19;20386;-53
2023/10/15 15:33:24;;;;;;;1.23;0.40;;;;;;;8.83;100.00;98567.31;15266429;19;20017;-53
2023/10/15 15:38:49;;;;;;;0.55;0.38;;;;;;;8.67;100.00;98573.28;15267321;19;20013;-52
2023/10/15 15:44:17;;;;;;;1.05;0.50;;;;;;;8.55;100.00;98573.47;15264801;19;20050;-49
2023/10/15 15:49:42;;;;;;;0.60;0.30;;;;;;;8.51;100.00;98590.00;15262549;19;20046;-53
2023/10/15 15:55:07;;;;;;;0.88;0.63;;;;;;;8.43;100.00;98580.81;15255406;19;20022;-52
2023/10/15 16:00:36;;;;;;;0.57;0.30;;;;;;;8.27;100.00;98589.47;15264620;19;20006;-52
2023/10/15 16:06:08;;;;;;;0.77;0.52;;;;;;;8.07;100.00;98593.13;15259964;19;20013;-52
2023/10/15 16:11:33;;;;;;;0.73;0.40;;;;;;;7.86;100.00;98602.16;15275020;19;20025;-53
2023/10/15 16:16:53;;;;;;;1.02;0.40;;;;;;;7.61;100.00;98596.31;15276225;19;20021;-53
2023/10/15 16:22:19;;;;;;;0.73;0.50;;;;;;;7.37;100.00;98610.09;15280005;19;20014;-54
2023/10/15 16:27:44;;;;;;;1.02;0.40;;;;;;;7.19;100.00;98620.63;15263260;19;20287;-56
2023/10/15 16:33:14;;;;;;;0.85;0.30;;;;;;;7.06;100.00;98629.72;15273611;19;20021;-52
2023/10/15 16:38:40;;;;;;;1.08;0.50;;;;;;;6.89;100.00;98643.72;15278700;19;20043;-52
2023/10/15 16:44:05;;;;;;;1.05;0.50;;;;;;;6.74;100.00;98651.25;15276300;19;20015;-51
2023/10/15 16:49:33;;;;;;;0.70;0.50;;;;;;;6.69;100.00;98670.38;15274852;19;20023;-53
2023/10/15 16:54:58;;;;;;;0.80;0.50;;;;;;;6.59;100.00;98678.34;15254682;19;20495;-50
2023/10/15 17:00:22;;;;;;;0.90;0.60;;;;;;;6.50;100.00;98683.63;15266677;19;20031;-51
2023/10/15 17:05:51;;;;;;;1.35;0.50;;;;;;;6.41;100.00;98702.13;15274626;19;20015;-52
2023/10/15 17:11:15;;;;;;;1.45;0.70;;;;;;;6.35;100.00;98708.03;15276077;19;20015;-52
2023/10/15 17:16:40;;;;;;;1.20;0.60;;;;;;;6.29;100.00;98720.06;15269045;19;20053;-52
2023/10/15 17:22:08;;;;;;;1.50;0.70;;;;;;;6.25;100.00;98715.09;15273520;19;20019;-54
2023/10/15 17:27:33;;;;;;;0.95;0.43;;;;;;;6.16;100.00;98730.94;15271864;19;20019;-51
2023/10/15 17:33:02;;;;;;;1.25;0.60;;;;;;;6.02;100.00;98736.56;15266900;19;20070;-50
2023/10/15 17:38:30;;;;;;;1.63;0.70;;;;;;;5.96;100.00;98740.56;15277530;19;20079;-48
2023/10/15 17:43:57;;;;;;;1.08;0.55;;;;;;;5.98;100.00;98743.09;15272724;19;20471;-48
2023/10/15 17:49:21;;;;;;;1.27;0.50;;;;;;;5.99;100.00;98748.38;15272164;19;20038;-52
2023/10/15 17:54:48;;;;;;;1.30;0.68;;;;;;;5.96;100.00;98743.22;15270665;19;20094;-50
2023/10/15 18:00:16;;;;;;;1.20;0.60;;;;;;;5.88;100.00;98745.66;15268130;19;20396;-50
2023/10/15 18:05:41;;;;;;;1.55;0.73;;;;;;;5.75;100.00;98756.50;15250438;19;20019;-50
2023/10/15 18:11:09;;;;;;;0.80;0.80;;;;;;;5.64;100.00;98764.50;15264246;19;20364;-52
2023/10/15 18:16:34;;;;;;;1.13;0.65;;;;;;;5.61;100.00;98772.78;15264453;19;20480;-56
2023/10/15 18:21:58;;;;;;;1.60;0.70;;;;;;;5.62;100.00;98777.16;15270395;19;20014;-49
2023/10/15 18:27:25;;;;;;;1.77;0.60;;;;;;;5.64;100.00;98783.22;15267727;19;20010;-51
2023/10/15 18:32:50;;;;;;;1.38;0.63;;;;;;;5.66;100.00;98789.31;15270100;19;20431;-52
2023/10/15 18:38:16;;;;;;;1.60;0.60;;;;;;;5.67;100.00;98794.53;15254680;19;20027;-53
2023/10/15 18:43:44;;;;;;;0.55;0.55;;;;;;;5.66;100.00;98805.34;15274869;19;20070;-48
2023/10/15 18:49:09;;;;;;;1.30;0.60;;;;;;;5.66;100.00;98829.41;15266404;19;20018;-52
2023/10/15 18:54:36;;;;;;;1.08;0.60;;;;;;;5.68;100.00;98827.47;15269161;19;20014;-53
2023/10/15 19:00:06;;;;;;;1.17;0.80;;;;;;;5.66;100.00;98832.06;15269769;19;20013;-49
2023/10/15 19:05:31;;;;;;;1.15;0.75;;;;;;;5.57;100.00;98838.97;15267589;19;20016;-51
2023/10/15 19:10:56;;;;;;;1.63;0.70;;;;;;;5.55;100.00;98843.59;15262201;19;20027;-50
2023/10/15 19:16:24;;;;;;;1.30;0.60;;;;;;;5.45;100.00;98846.16;15268076;19;20799;-51
2023/10/15 19:21:50;;;;;;;0.80;0.50;;;;;;;5.36;100.00;98853.03;15269494;19;20640;-50
2023/10/15 19:27:14;;;;;;;1.15;0.60;;;;;;;5.30;100.00;98852.66;15264233;19;20015;-52
2023/10/15 19:32:42;;;;;;;3.60;0.80;;;;;;;5.21;100.00;98854.19;15269598;19;20035;-51
2023/10/15 19:38:06;;;;;;;1.60;0.80;;;;;;;5.22;100.00;98870.13;15265154;19;20023;-49
2023/10/15 19:43:31;;;;;;;1.33;0.70;;;;;;;5.25;100.00;98869.03;15261996;19;20098;-50
2023/10/15 19:49:00;;;;;;;2.00;0.70;;;;;;;5.23;100.00;98874.47;15277251;19;20019;-50
2023/10/15 19:54:26;;;;;;;1.77;0.95;;;;;;;5.18;100.00;98868.66;15276378;19;20029;-49
2023/10/15 19:59:50;;;;;;;1.40;0.68;;;;;;;5.21;100.00;98886.25;15285099;19;20022;-51
2023/10/15 20:05:24;;;;;;;1.40;0.60;;;;;;;5.49;100.00;98892.19;15282038;19;20056;-49
2023/10/15 20:10:49;;;;;;;1.73;0.80;;;;;;;5.63;100.00;98889.31;15297748;19;20053;-51
2023/10/15 20:16:14;;;;;;;1.13;0.75;;;;;;;5.78;100.00;98897.09;15279349;19;20126;-51
2023/10/15 20:21:42;;;;;;;1.98;0.73;;;;;;;5.70;100.00;98895.88;15284052;19;20034;-51
2023/10/15 20:27:07;;;;;;;1.63;0.80;;;;;;;5.62;100.00;98908.13;15276484;19;19999;-50
2023/10/15 20:32:32;;;;;;;0.40;0.40;;;;;;;5.73;100.00;98913.50;15281478;19;20015;-49
2023/10/15 20:38:15;;;;;;;1.02;0.60;;;;;;;5.76;100.00;98915.94;15275451;19;20025;-51
2023/10/15 20:43:40;;;;;;;1.35;0.70;;;;;;;5.81;100.00;98916.44;15275747;19;20034;-49
2023/10/15 20:49:05;;;;;;;2.78;0.70;;;;;;;5.90;100.00;98927.41;15270886;19;20022;-52
2023/10/15 20:54:33;;;;;;;2.38;0.70;;;;;;;5.86;100.00;98922.28;15279053;19;20023;-50
2023/10/15 20:59:57;;;;;;;2.15;0.70;;;;;;;5.73;100.00;98924.19;15275486;19;20415;-49
2023/10/15 21:05:23;;;;;;;1.27;0.63;;;;;;;5.73;100.00;98928.69;15278148;19;20086;-49
2023/10/15 21:10:51;;;;;;;3.25;0.70;;;;;;;5.86;100.00;98916.94;15279071;19;20010;-52
2023/10/15 21:16:16;;;;;;;1.48;0.55;;;;;;;5.80;100.00;98917.41;15270295;19;20081;-49
2023/10/15 21:21:41;;;;;;;1.67;0.75;;;;;;;5.64;100.00;98927.56;15272140;19;20042;-50
2023/10/15 21:27:09;;;;;;;1.65;0.52;;;;;;;5.66;100.00;98926.47;15271345;19;20726;-50
2023/10/15 21:32:42;;;;;;;2.90;0.70;;;;;;;5.47;100.00;98916.34;15276664;19;20014;-53
2023/10/15 21:38:07;;;;;;;1.63;0.73;;;;;;;5.11;100.00;98918.16;15270850;19;20102;-48
2023/10/15 21:43:35;;;;;;;0.77;0.45;;;;;;;5.00;100.00;98926.13;15276748;19;20025;-51
2023/10/15 21:48:59;;;;;;;1.48;0.70;;;;;;;4.95;100.00;98929.09;15270638;19;20074;-47
2023/10/15 21:54:25;;;;;;;1.60;0.60;;;;;;;4.94;100.00;98940.75;15273853;19;20094;-48
2023/10/15 21:59:52;;;;;;;0.93;0.50;;;;;;;4.83;100.00;98944.22;15273977;19;20025;-48
2023/10/15 22:05:22;;;;;;;1.77;0.60;;;;;;;4.75;100.00;98942.09;15274189;19;20018;-49
2023/10/15 22:10:46;;;;;;;1.65;0.70;;;;;;;4.69;100.00;98934.56;15272744;19;20089;-51
2023/10/15 22:16:15;;;;;;;2.47;0.82;;;;;;;4.60;100.00;98933.41;15270960;19;20018;-48
2023/10/15 22:21:43;;;;;;;1.65;0.70;;;;;;;4.52;100.00;98934.91;15266021;19;20038;-50
2023/10/15 22:27:13;;;;;;;1.88;0.90;;;;;;;4.49;100.00;98927.97;15269218;19;20018;-49
2023/10/15 22:32:40;;;;;;;1.95;0.80;;;;;;;4.48;100.00;98924.44;15272109;19;20019;-47
2023/10/15 22:38:05;;;;;;;2.55;0.80;;;;;;;4.45;100.00;98930.03;15268424;19;20036;-50
2023/10/15 22:43:31;;;;;;;1.80;0.77;;;;;;;4.43;100.00;98936.41;15272088;19;20018;-51
2023/10/15 22:49:00;;;;;;;2.50;0.70;;;;;;;4.38;100.00;98941.25;15268944;19;20017;-51
2023/10/15 22:54:26;;;;;;;2.08;0.88;;;;;;;4.33;100.00;98941.56;14751914;19;10001317;-52
2023/10/15 22:59:53;;;;;;;2.25;0.70;;;;;;;4.35;100.00;98944.94;15270261;19;20745;-52
2023/10/15 23:05:21;;;;;;;3.10;0.70;;;;;;;4.44;100.00;98939.00;15269257;19;20021;-53
2023/10/15 23:10:47;;;;;;;1.77;0.70;;;;;;;4.42;100.00;98942.69;15270883;19;20013;-52
2023/10/15 23:16:14;;;;;;;3.67;0.70;;;;;;;4.46;100.00;98942.41;15267686;19;20014;-50
2023/10/15 23:21:45;;;;;;;5.10;0.63;;;;;;;4.43;100.00;98941.75;15278497;19;20020;-48
2023/10/15 23:27:11;;;;;;;1.30;0.63;;;;;;;4.43;100.00;98952.41;15269419;19;20022;-49
2023/10/15 23:32:39;;;;;;;2.90;0.82;;;;;;;4.32;100.00;98951.38;15287140;19;20271;-49
2023/10/15 23:38:09;;;;;;;1.50;0.80;;;;;;;4.12;100.00;98949.25;15279161;19;20487;-56
2023/10/15 23:43:35;;;;;;;1.77;0.80;;;;;;;3.95;100.00;98939.78;15029073;19;5001761;-51
2023/10/15 23:49:01;;;;;;;1.15;0.80;;;;;;;3.84;100.00;98940.50;15278528;19;20014;-47
2023/10/15 23:54:29;;;;;;;1.45;0.70;;;;;;;3.72;100.00;98947.53;15284485;19;20028;-48
2023/10/15 23:59:54;;;;;;;4.30;1.00;;;;;;;3.60;100.00;98940.38;15273516;19;20018;-50
